createdAt,value
2022-09-18T00:00:19.923Z,92.75
2022-09-18T00:03:22.853Z,92.60
2022-09-18T00:06:29.913Z,92.74
2022-09-18T00:09:32.766Z,92.66
2022-09-18T00:12:35.845Z,92.48
2022-09-18T00:15:38.893Z,92.44
2022-09-18T00:18:42.202Z,92.24
2022-09-18T00:21:48.207Z,92.19
2022-09-18T00:24:51.206Z,92.45
2022-09-18T00:27:53.877Z,92.48
2022-09-18T00:30:57.064Z,92.26
2022-09-18T00:34:02.626Z,91.95
2022-09-18T00:37:06.941Z,91.51
2022-09-18T00:40:11.350Z,91.85
2022-09-18T00:43:21.975Z,91.54
2022-09-18T00:46:30.971Z,91.84
2022-09-18T00:49:34.593Z,91.51
2022-09-18T00:52:49.579Z,91.27
2022-09-18T00:55:52.694Z,91.85
2022-09-18T00:58:55.460Z,91.74
2022-09-18T01:02:00.196Z,91.61
2022-09-18T01:05:03.266Z,91.24
2022-09-18T01:08:24.160Z,90.91
2022-09-18T01:11:37.324Z,90.79
2022-09-18T01:14:45.237Z,91.07
2022-09-18T01:17:55.611Z,90.78
2022-09-18T01:21:08.567Z,90.31
2022-09-18T01:24:40.307Z,90.18
2022-09-18T01:27:59.221Z,90.11
2022-09-18T01:31:08.225Z,90.02
2022-09-18T01:34:16.515Z,89.80
2022-09-18T01:37:29.262Z,89.68
2022-09-18T01:40:36.407Z,89.88
2022-09-18T01:43:42.254Z,89.78
2022-09-18T01:46:46.784Z,89.26
2022-09-18T01:49:53.746Z,89.32
2022-09-18T01:53:04.007Z,89.43
2022-09-18T01:56:12.437Z,89.20
2022-09-18T01:59:22.664Z,89.16
2022-09-18T02:02:32.907Z,89.13
2022-09-18T02:05:41.172Z,89.22
2022-09-18T02:08:48.699Z,88.94
2022-09-18T02:11:56.525Z,89.23
2022-09-18T02:15:06.394Z,89.13
2022-09-18T02:18:13.239Z,89.10
2022-09-18T02:21:19.688Z,88.77
2022-09-18T02:24:26.056Z,89.25
2022-09-18T02:27:31.013Z,88.92
2022-09-18T02:30:35.531Z,88.80
2022-09-18T02:33:38.805Z,88.60
2022-09-18T02:36:58.134Z,88.14
2022-09-18T02:40:18.669Z,88.51
2022-09-18T02:43:36.796Z,88.03
2022-09-18T02:46:51.399Z,88.63
2022-09-18T02:50:02.822Z,88.71
2022-09-18T02:53:11.887Z,88.85
2022-09-18T02:56:22.982Z,89.22
2022-09-18T02:59:29.954Z,89.41
2022-09-18T03:02:34.605Z,89.30
2022-09-18T03:05:37.319Z,89.58
2022-09-18T03:08:40.518Z,89.82
2022-09-18T03:11:43.364Z,89.72
2022-09-18T03:14:46.076Z,89.40
2022-09-18T03:17:50.430Z,89.46
2022-09-18T03:20:53.731Z,89.67
2022-09-18T03:23:56.822Z,89.33
2022-09-18T03:26:59.989Z,89.81
2022-09-18T03:30:02.800Z,89.73
2022-09-18T03:33:06.897Z,89.83
2022-09-18T03:36:10.064Z,89.60
2022-09-18T03:39:16.056Z,89.80
2022-09-18T03:42:19.049Z,90.02
2022-09-18T03:45:22.115Z,90.69
2022-09-18T03:48:26.162Z,91.01
2022-09-18T03:51:29.309Z,91.15
2022-09-18T03:54:33.780Z,91.11
2022-09-18T03:57:37.542Z,91.19
2022-09-18T04:00:40.719Z,90.83
2022-09-18T04:03:45.002Z,90.81
2022-09-18T04:06:47.676Z,91.28
2022-09-18T04:09:50.406Z,91.34
2022-09-18T04:12:53.125Z,91.12
2022-09-18T04:15:56.213Z,91.56
2022-09-18T04:19:00.429Z,91.37
2022-09-18T04:22:03.677Z,91.59
2022-09-18T04:25:08.060Z,91.49
2022-09-18T04:28:11.909Z,91.53
2022-09-18T04:31:15.077Z,91.45
2022-09-18T04:34:19.112Z,91.63
2022-09-18T04:37:21.824Z,91.81
2022-09-18T04:40:24.977Z,91.79
2022-09-18T04:43:28.966Z,91.60
2022-09-18T04:46:32.102Z,91.99
2022-09-18T04:49:36.162Z,91.72
2022-09-18T04:52:39.311Z,91.94
2022-09-18T04:55:44.530Z,91.58
2022-09-18T04:58:47.686Z,91.84
2022-09-18T05:01:50.821Z,91.66
2022-09-18T05:04:54.943Z,91.97
2022-09-18T05:07:59.309Z,92.09
2022-09-18T05:11:04.852Z,92.26
2022-09-18T05:14:07.915Z,92.08
2022-09-18T05:17:11.106Z,92.85
2022-09-18T05:20:15.947Z,93.41
2022-09-18T05:23:18.658Z,93.70
2022-09-18T05:26:21.333Z,93.49
2022-09-18T05:29:24.403Z,93.58
2022-09-18T05:32:27.076Z,93.50
2022-09-18T05:35:32.470Z,93.63
2022-09-18T05:38:35.201Z,93.81
2022-09-18T05:41:41.350Z,93.41
2022-09-18T05:44:46.384Z,93.69
2022-09-18T05:47:57.103Z,93.33
2022-09-18T05:51:01.553Z,93.12
2022-09-18T05:54:05.417Z,93.03
2022-09-18T05:57:08.490Z,93.28
2022-09-18T06:00:12.923Z,93.39
2022-09-18T06:03:17.354Z,93.29
2022-09-18T06:06:22.164Z,93.40
2022-09-18T06:09:24.913Z,92.87
2022-09-18T06:12:28.118Z,93.00
2022-09-18T06:15:31.558Z,93.03
2022-09-18T06:18:34.324Z,92.91
2022-09-18T06:21:38.909Z,92.41
2022-09-18T06:24:41.750Z,92.23
2022-09-18T06:27:44.452Z,92.00
2022-09-18T06:30:47.228Z,91.70
2022-09-18T06:33:50.551Z,91.20
2022-09-18T06:36:54.630Z,91.00
2022-09-18T06:39:57.448Z,91.07
2022-09-18T06:43:02.126Z,90.84
2022-09-18T06:46:06.012Z,90.65
2022-09-18T06:49:08.813Z,90.81
2022-09-18T06:52:13.004Z,90.81
2022-09-18T06:55:16.030Z,90.63
2022-09-18T06:58:19.753Z,90.14
2022-09-18T07:01:22.612Z,90.07
2022-09-18T07:04:25.897Z,90.27
2022-09-18T07:07:30.322Z,90.22
2022-09-18T07:10:33.285Z,89.52
2022-09-18T07:13:37.572Z,89.49
2022-09-18T07:16:40.480Z,89.80
2022-09-18T07:19:43.287Z,89.33
2022-09-18T07:22:53.309Z,89.52
2022-09-18T07:25:56.011Z,89.54
2022-09-18T07:28:59.133Z,89.38
2022-09-18T07:32:02.714Z,88.90
2022-09-18T07:35:06.307Z,88.87
2022-09-18T07:38:11.244Z,88.40
2022-09-18T07:41:13.977Z,88.24
2022-09-18T07:44:16.857Z,88.41
2022-09-18T07:47:20.273Z,87.96
2022-09-18T07:50:23.577Z,87.23
2022-09-18T07:53:29.785Z,87.29
2022-09-18T07:56:32.626Z,87.21
2022-09-18T07:59:35.322Z,87.00
2022-09-18T08:02:38.197Z,86.53
2022-09-18T08:05:42.242Z,86.23
2022-09-18T08:08:46.889Z,86.37
2022-09-18T08:11:52.574Z,86.19
2022-09-18T08:14:55.489Z,85.98
2022-09-18T08:17:58.563Z,85.57
2022-09-18T08:21:01.565Z,85.69
2022-09-18T08:24:06.084Z,85.74
2022-09-18T08:27:09.267Z,85.08
2022-09-18T08:30:14.698Z,84.98
2022-09-18T08:33:17.425Z,84.83
2022-09-18T08:36:20.117Z,85.00
2022-09-18T08:39:24.724Z,84.80
2022-09-18T08:42:38.270Z,85.08
2022-09-18T08:45:52.735Z,85.00
2022-09-18T08:49:07.998Z,84.72
2022-09-18T08:52:14.915Z,84.73
2022-09-18T08:55:27.379Z,84.81
2022-09-18T08:58:34.940Z,84.12
2022-09-18T09:01:48.264Z,83.64
2022-09-18T09:04:51.241Z,83.07
2022-09-18T09:08:09.582Z,83.33
2022-09-18T09:11:20.949Z,83.58
2022-09-18T09:14:56.105Z,83.53
2022-09-18T09:18:10.075Z,82.69
2022-09-18T09:21:21.853Z,82.33
2022-09-18T09:24:32.912Z,82.26
2022-09-18T09:27:41.398Z,81.47
2022-09-18T09:30:47.598Z,81.09
2022-09-18T09:33:56.261Z,81.07
2022-09-18T09:37:02.232Z,80.11
2022-09-18T09:40:13.534Z,80.17
2022-09-18T09:43:26.530Z,80.17
2022-09-18T09:46:44.823Z,79.52
2022-09-18T09:49:58.255Z,79.58
2022-09-18T09:53:05.073Z,78.66
2022-09-18T09:56:15.154Z,77.69
2022-09-18T09:59:26.978Z,78.30
2022-09-18T10:02:41.609Z,77.10
2022-09-18T10:05:53.631Z,77.05
2022-09-18T10:09:04.101Z,77.52
2022-09-18T10:12:19.487Z,77.25
2022-09-18T10:15:29.655Z,77.12
2022-09-18T10:18:40.091Z,76.75
2022-09-18T10:21:45.473Z,77.07
2022-09-18T10:24:55.469Z,77.31
2022-09-18T10:27:59.086Z,77.07
2022-09-18T10:31:05.463Z,76.96
2022-09-18T10:34:32.639Z,76.28
2022-09-18T10:37:40.326Z,75.84
2022-09-18T10:40:43.630Z,76.33
2022-09-18T10:43:55.827Z,76.31
2022-09-18T10:47:06.643Z,75.93
2022-09-18T10:50:19.567Z,75.69
2022-09-18T10:53:29.712Z,74.21
2022-09-18T10:56:33.398Z,74.05
2022-09-18T10:59:36.922Z,73.29
2022-09-18T11:02:47.884Z,72.88
2022-09-18T11:05:57.347Z,71.47
2022-09-18T11:09:03.829Z,70.16
2022-09-18T11:12:16.094Z,68.31
2022-09-18T11:15:21.657Z,67.94
2022-09-18T11:18:27.294Z,67.51
2022-09-18T11:21:30.176Z,67.84
2022-09-18T11:24:34.811Z,66.85
2022-09-18T11:27:46.898Z,64.76
2022-09-18T11:30:58.148Z,64.41
2022-09-18T11:34:06.452Z,64.22
2022-09-18T11:37:13.041Z,64.42
2022-09-18T11:40:22.497Z,63.93
2022-09-18T11:43:28.513Z,62.98
2022-09-18T11:46:44.511Z,63.79
2022-09-18T11:49:52.224Z,63.34
2022-09-18T11:52:59.618Z,62.59
2022-09-18T11:56:07.286Z,61.88
2022-09-18T11:59:16.617Z,62.14
2022-09-18T12:02:27.970Z,62.20
2022-09-18T12:05:37.731Z,62.01
2022-09-18T12:08:50.992Z,62.56
2022-09-18T12:12:02.800Z,63.01
2022-09-18T12:15:14.030Z,62.86
2022-09-18T12:18:21.352Z,62.16
2022-09-18T12:21:39.263Z,62.39
2022-09-18T12:24:42.507Z,63.31
2022-09-18T12:27:50.545Z,62.90
2022-09-18T12:31:02.200Z,63.20
2022-09-18T12:34:12.917Z,63.30
2022-09-18T12:37:31.791Z,63.02
2022-09-18T12:40:58.580Z,64.54
2022-09-18T12:44:29.477Z,65.36
2022-09-18T12:47:47.041Z,66.75
2022-09-18T12:51:04.548Z,67.24
2022-09-18T12:54:31.041Z,67.67
2022-09-18T12:57:47.467Z,67.78
2022-09-18T13:00:53.205Z,67.85
2022-09-18T13:04:06.401Z,68.01
2022-09-18T13:07:17.164Z,68.31
2022-09-18T13:10:24.422Z,68.23
2022-09-18T13:13:38.034Z,68.45
2022-09-18T13:16:50.171Z,68.78
2022-09-18T13:19:59.064Z,69.50
2022-09-18T13:23:03.184Z,69.16
2022-09-18T13:26:11.933Z,69.68
2022-09-18T13:29:52.593Z,69.90
2022-09-18T13:32:57.044Z,70.04
2022-09-18T13:36:00.012Z,69.95
2022-09-18T13:39:06.370Z,70.20
2022-09-18T13:42:10.593Z,70.23
2022-09-18T13:45:21.035Z,70.45
2022-09-18T13:48:28.159Z,70.18
2022-09-18T13:51:36.172Z,70.34
2022-09-18T13:54:39.541Z,70.81
2022-09-18T13:57:45.223Z,70.90
2022-09-18T14:00:48.066Z,70.44
2022-09-18T14:03:51.172Z,70.26
2022-09-18T14:06:54.067Z,70.68
2022-09-18T14:10:03.938Z,70.98
2022-09-18T14:13:25.440Z,71.18
2022-09-18T14:16:33.148Z,70.83
2022-09-18T14:19:37.889Z,71.15
2022-09-18T14:22:41.264Z,71.60
2022-09-18T14:25:46.057Z,72.09
2022-09-18T14:28:50.470Z,72.56
2022-09-18T14:31:55.377Z,73.12
2022-09-18T14:35:25.893Z,73.78
2022-09-18T14:38:34.591Z,74.27
2022-09-18T14:41:38.241Z,75.08
2022-09-18T14:44:48.653Z,75.75
2022-09-18T14:47:52.209Z,76.50
2022-09-18T14:51:03.870Z,77.11
2022-09-18T14:54:20.054Z,77.48
2022-09-18T14:57:27.023Z,78.32
2022-09-18T15:00:33.304Z,78.51
2022-09-18T15:03:39.813Z,79.02
2022-09-18T15:06:46.740Z,79.74
2022-09-18T15:09:52.924Z,79.74
2022-09-18T15:12:57.842Z,80.21
2022-09-18T15:16:04.622Z,80.40
2022-09-18T15:19:18.237Z,80.49
2022-09-18T15:22:22.935Z,81.12
2022-09-18T15:25:31.756Z,81.03
2022-09-18T15:28:37.425Z,81.21
2022-09-18T15:31:42.322Z,81.35
2022-09-18T15:34:49.832Z,81.48
2022-09-18T15:37:55.040Z,81.63
2022-09-18T15:40:57.826Z,81.76
2022-09-18T15:44:01.835Z,81.84
2022-09-18T15:47:35.012Z,81.87
2022-09-18T15:50:43.563Z,82.01
2022-09-18T15:54:05.270Z,81.82
2022-09-18T15:57:15.907Z,81.65
2022-09-18T16:00:19.365Z,81.77
2022-09-18T16:03:24.427Z,81.77
2022-09-18T16:06:32.275Z,82.14
2022-09-18T16:09:42.325Z,82.24
2022-09-18T16:12:45.546Z,82.24
2022-09-18T16:15:50.323Z,82.08
2022-09-18T16:18:57.127Z,82.21
2022-09-18T16:22:10.741Z,82.28
2022-09-18T16:25:20.273Z,82.79
2022-09-18T16:28:26.109Z,82.97
2022-09-18T16:31:30.926Z,82.73
2022-09-18T16:34:35.018Z,82.76
2022-09-18T16:37:41.258Z,83.21
2022-09-18T16:40:44.471Z,83.45
2022-09-18T16:43:47.245Z,83.37
2022-09-18T16:46:53.180Z,83.14
2022-09-18T16:49:57.304Z,83.17
2022-09-18T16:53:01.584Z,83.57
2022-09-18T16:56:08.138Z,83.52
2022-09-18T16:59:11.469Z,83.36
2022-09-18T17:02:18.113Z,83.07
2022-09-18T17:05:22.326Z,83.16
2022-09-18T17:08:25.669Z,82.69
2022-09-18T17:11:28.524Z,82.94
2022-09-18T17:14:31.609Z,82.99
2022-09-18T17:17:34.455Z,83.14
2022-09-18T17:20:38.549Z,83.24
2022-09-18T17:23:41.317Z,83.42
2022-09-18T17:26:44.249Z,83.40
2022-09-18T17:29:46.968Z,83.46
2022-09-18T17:32:50.252Z,83.48
2022-09-18T17:35:54.306Z,83.58
2022-09-18T17:39:01.772Z,83.68
2022-09-18T17:42:05.437Z,83.58
2022-09-18T17:45:09.386Z,83.77
2022-09-18T17:48:12.315Z,83.72
2022-09-18T17:51:18.669Z,83.77
2022-09-18T17:54:21.396Z,84.19
2022-09-18T17:57:24.184Z,84.23
2022-09-18T18:00:27.176Z,83.67
2022-09-18T18:03:30.098Z,84.27
2022-09-18T18:06:34.608Z,84.42
2022-09-18T18:09:38.009Z,84.26
2022-09-18T18:12:41.028Z,84.39
2022-09-18T18:15:43.737Z,84.29
2022-09-18T18:18:46.440Z,84.96
2022-09-18T18:21:50.568Z,84.74
2022-09-18T18:24:53.224Z,84.79
2022-09-18T18:27:56.170Z,86.35
2022-09-18T18:31:03.035Z,87.07
2022-09-18T18:34:05.861Z,87.18
2022-09-18T18:37:09.883Z,87.50
2022-09-18T18:40:13.203Z,88.13
2022-09-18T18:43:15.906Z,88.28
2022-09-18T18:46:18.645Z,88.69
2022-09-18T18:49:21.801Z,89.11
2022-09-18T18:52:26.353Z,89.46
2022-09-18T18:55:29.078Z,89.80
2022-09-18T18:58:32.644Z,89.49
2022-09-18T19:01:35.757Z,89.38
2022-09-18T19:04:40.472Z,89.44
2022-09-18T19:07:44.619Z,89.46
2022-09-18T19:10:56.475Z,89.30
2022-09-18T19:14:00.153Z,89.26
2022-09-18T19:17:03.024Z,89.63
2022-09-18T19:20:06.446Z,89.49
2022-09-18T19:23:13.272Z,89.54
2022-09-18T19:26:16.013Z,90.01
2022-09-18T19:29:22.008Z,90.35
2022-09-18T19:32:24.846Z,90.36
2022-09-18T19:35:27.534Z,90.72
2022-09-18T19:38:35.200Z,90.75
2022-09-18T19:41:42.048Z,90.79
2022-09-18T19:44:48.796Z,91.00
2022-09-18T19:47:52.083Z,91.12
2022-09-18T19:50:55.721Z,91.32
2022-09-18T19:53:59.829Z,90.87
2022-09-18T19:57:03.008Z,91.07
2022-09-18T20:00:06.633Z,91.69
2022-09-18T20:03:10.669Z,92.06
2022-09-18T20:06:13.618Z,91.96
2022-09-18T20:09:17.786Z,93.66
2022-09-18T20:12:20.722Z,97.64
2022-09-18T20:15:23.932Z,100.00
2022-09-18T20:18:26.680Z,100.00
2022-09-18T20:21:29.841Z,100.00
2022-09-18T20:24:34.374Z,100.00
2022-09-18T20:27:39.391Z,100.00
2022-09-18T20:30:42.076Z,100.00
2022-09-18T20:33:45.511Z,100.00
2022-09-18T20:36:49.526Z,100.00
2022-09-18T20:39:54.369Z,100.00
2022-09-18T20:42:57.072Z,100.00
2022-09-18T20:46:01.060Z,100.00
2022-09-18T20:49:03.852Z,100.00
2022-09-18T20:52:10.316Z,100.00
2022-09-18T20:55:18.281Z,100.00
2022-09-18T20:58:21.554Z,100.00
2022-09-18T21:01:26.418Z,100.00
2022-09-18T21:04:29.748Z,100.00
2022-09-18T21:07:33.177Z,100.00
2022-09-18T21:10:46.958Z,100.00
2022-09-18T21:13:53.493Z,100.00
2022-09-18T21:16:56.750Z,100.00
2022-09-18T21:19:59.422Z,100.00
2022-09-18T21:23:20.284Z,100.00
2022-09-18T21:26:25.799Z,100.00
2022-09-18T21:29:30.096Z,100.00
2022-09-18T21:32:32.738Z,100.00
2022-09-18T21:35:35.637Z,100.00
2022-09-18T21:38:40.128Z,100.00
2022-09-18T21:41:46.508Z,100.00
2022-09-18T21:44:49.909Z,100.00
2022-09-18T21:47:52.722Z,100.00
2022-09-18T21:50:55.754Z,100.00
2022-09-18T21:53:59.073Z,100.00
2022-09-18T21:57:03.738Z,100.00
2022-09-18T22:00:09.043Z,100.00
2022-09-18T22:03:12.543Z,100.00
2022-09-18T22:06:15.207Z,100.00
2022-09-18T22:09:20.541Z,100.00
2022-09-18T22:12:25.090Z,100.00
2022-09-18T22:15:27.750Z,100.00
2022-09-18T22:18:30.865Z,100.00
2022-09-18T22:21:35.856Z,100.00
2022-09-18T22:24:38.965Z,100.00
2022-09-18T22:27:43.727Z,100.00
2022-09-18T22:30:46.853Z,100.00
2022-09-18T22:33:53.565Z,100.00
2022-09-18T22:36:57.415Z,100.00
2022-09-18T22:40:00.301Z,100.00
2022-09-18T22:43:04.771Z,100.00
2022-09-18T22:46:10.347Z,100.00
2022-09-18T22:49:14.856Z,100.00
2022-09-18T22:52:17.665Z,100.00
2022-09-18T22:55:20.397Z,100.00
2022-09-18T22:58:25.113Z,100.00
2022-09-18T23:01:32.274Z,100.00
2022-09-18T23:04:37.148Z,100.00
2022-09-18T23:07:39.925Z,100.00
2022-09-18T23:10:42.733Z,100.00
2022-09-18T23:13:51.379Z,100.00
2022-09-18T23:16:55.534Z,100.00
2022-09-18T23:19:58.229Z,100.00
2022-09-18T23:23:01.449Z,100.00
2022-09-18T23:26:08.981Z,100.00
2022-09-18T23:29:15.156Z,100.00
2022-09-18T23:32:18.645Z,100.00
2022-09-18T23:35:21.474Z,100.00
2022-09-18T23:38:24.363Z,100.00
2022-09-18T23:41:29.702Z,100.00
2022-09-18T23:44:34.831Z,100.00
2022-09-18T23:47:38.151Z,100.00
2022-09-18T23:50:43.587Z,100.00
2022-09-18T23:53:46.278Z,100.00
2022-09-18T23:56:49.987Z,100.00
2022-09-18T23:59:54.122Z,100.00
